createdAt,value
2018-02-12T00:02:05.305Z,67.50
2018-02-12T00:04:37.699Z,68.00
2018-02-12T00:07:06.897Z,67.60
2018-02-12T00:09:57.616Z,67.50
2018-02-12T00:12:23.994Z,67.10
2018-02-12T00:14:50.983Z,67.00
2018-02-12T00:17:17.590Z,67.00
2018-02-12T00:19:44.316Z,66.80
2018-02-12T00:22:12.449Z,67.00
2018-02-12T00:24:38.804Z,67.20
2018-02-12T00:27:05.260Z,67.00
2018-02-12T00:29:32.255Z,67.00
2018-02-12T00:31:58.605Z,67.50
2018-02-12T00:40:25.429Z,67.50
2018-02-12T00:43:02.408Z,67.50
2018-02-12T00:45:30.276Z,67.70
2018-02-12T00:47:58.910Z,67.50
2018-02-12T00:50:27.334Z,67.60
2018-02-12T00:52:55.600Z,68.10
2018-02-12T00:55:21.999Z,68.20
2018-02-12T00:57:48.993Z,68.60
2018-02-12T01:00:15.567Z,69.20
2018-02-12T01:02:42.021Z,68.90
2018-02-12T01:05:08.642Z,69.10
2018-02-12T01:07:35.085Z,69.60
2018-02-12T01:10:03.866Z,69.30
2018-02-12T01:18:39.084Z,69.90
2018-02-12T01:21:06.868Z,69.90
2018-02-12T01:23:33.724Z,69.80
2018-02-12T01:28:43.650Z,70.10
2018-02-12T01:31:10.064Z,70.40
2018-02-12T01:33:36.366Z,70.50
2018-02-12T01:36:03.070Z,70.30
2018-02-12T01:38:29.847Z,70.20
2018-02-12T01:40:56.110Z,70.20
2018-02-12T01:45:55.433Z,69.80
2018-02-12T01:48:30.607Z,70.10
2018-02-12T01:50:58.530Z,69.70
2018-02-12T01:53:26.719Z,69.90
2018-02-12T01:55:53.294Z,70.00
2018-02-12T01:58:19.692Z,69.60
2018-02-12T02:05:52.499Z,69.10
2018-02-12T02:08:18.782Z,68.80
2018-02-12T02:10:47.141Z,68.60
2018-02-12T02:13:30.626Z,68.20
2018-02-12T02:15:57.240Z,68.90
2018-02-12T02:21:04.996Z,67.90
2018-02-12T02:23:32.892Z,68.60
2018-02-12T02:25:59.709Z,67.90
2018-02-12T02:28:29.272Z,68.10
2018-02-12T02:30:57.058Z,68.10
2018-02-12T02:33:31.029Z,68.10
2018-02-12T02:35:57.375Z,67.80
2018-02-12T02:38:23.637Z,67.60
2018-02-12T02:40:49.941Z,67.90
2018-02-12T02:43:16.610Z,67.30
2018-02-12T02:45:43.553Z,67.80
2018-02-12T02:48:09.855Z,68.30
2018-02-12T02:50:37.070Z,68.60
2018-02-12T02:53:03.524Z,68.60
2018-02-12T02:55:29.870Z,69.10
2018-02-12T02:57:56.132Z,68.20
2018-02-12T03:00:28.160Z,68.10
2018-02-12T03:06:18.163Z,68.50
2018-02-12T03:08:46.885Z,68.30
2018-02-12T03:11:35.089Z,68.90
2018-02-12T03:14:08.296Z,69.20
2018-02-12T03:16:35.524Z,69.20
2018-02-12T03:19:02.013Z,69.50
2018-02-12T03:21:48.771Z,69.60
2018-02-12T03:24:15.362Z,69.10
2018-02-12T03:26:43.755Z,69.50
2018-02-12T03:29:10.023Z,69.30
2018-02-12T03:31:37.119Z,69.80
2018-02-12T03:34:03.766Z,69.60
2018-02-12T03:36:30.139Z,69.70
2018-02-12T03:38:58.152Z,69.90
2018-02-12T03:41:25.536Z,70.10
2018-02-12T03:43:51.815Z,70.10
2018-02-12T03:46:18.076Z,70.20
2018-02-12T03:48:44.927Z,70.40
2018-02-12T03:51:12.086Z,70.60
2018-02-12T03:53:38.304Z,71.00
2018-02-12T03:56:05.504Z,70.90
2018-02-12T03:58:31.921Z,71.00
2018-02-12T04:03:47.992Z,71.10
2018-02-12T04:06:27.481Z,71.20
2018-02-12T04:08:55.802Z,71.00
2018-02-12T04:11:22.493Z,70.40
2018-02-12T04:16:53.648Z,70.60
2018-02-12T04:19:19.967Z,70.30
2018-02-12T04:21:47.567Z,69.70
2018-02-12T04:24:17.742Z,69.20
2018-02-12T04:26:44.098Z,69.00
2018-02-12T04:29:10.625Z,69.40
2018-02-12T04:31:37.697Z,68.30
2018-02-12T04:34:04.112Z,68.20
2018-02-12T04:36:30.368Z,68.00
2018-02-12T04:38:56.785Z,67.60
2018-02-12T04:41:24.558Z,68.00
2018-02-12T04:43:51.177Z,67.70
2018-02-12T04:46:17.436Z,67.90
2018-02-12T04:48:43.733Z,67.50
2018-02-12T04:51:10.761Z,66.40
2018-02-12T04:53:52.867Z,66.40
2018-02-12T04:56:20.395Z,67.10
2018-02-12T04:58:47.922Z,67.10
2018-02-12T05:01:14.420Z,66.40
2018-02-12T05:03:40.724Z,66.80
2018-02-12T05:06:07.041Z,66.70
2018-02-12T05:08:33.821Z,66.50
2018-02-12T05:11:00.430Z,66.40
2018-02-12T05:13:26.773Z,66.40
2018-02-12T05:15:53.080Z,66.90
2018-02-12T05:18:19.447Z,66.30
2018-02-12T05:20:46.062Z,66.40
2018-02-12T05:23:13.022Z,66.50
2018-02-12T05:37:53.785Z,65.60
2018-02-12T05:40:30.955Z,65.00
2018-02-12T05:49:05.818Z,65.00
2018-02-12T05:51:32.327Z,64.00
2018-02-12T05:53:58.661Z,64.30
2018-02-12T05:56:25.395Z,63.70
2018-02-12T05:58:51.932Z,63.70
2018-02-12T06:01:18.220Z,63.50
2018-02-12T06:03:44.757Z,63.90
2018-02-12T06:12:31.462Z,63.40
2018-02-12T06:17:58.680Z,63.40
2018-02-12T06:20:24.946Z,63.90
2018-02-12T06:22:51.264Z,63.20
2018-02-12T06:25:17.625Z,63.80
2018-02-12T06:27:43.847Z,64.40
2018-02-12T06:30:10.230Z,64.40
2018-02-12T06:32:36.595Z,64.00
2018-02-12T06:35:02.793Z,64.50
2018-02-12T06:37:29.157Z,64.10
2018-02-12T06:39:55.609Z,64.80
2018-02-12T06:42:21.816Z,63.90
2018-02-12T06:44:48.037Z,64.20
2018-02-12T06:47:14.502Z,64.00
2018-02-12T06:49:40.745Z,64.20
2018-02-12T06:52:06.997Z,64.00
2018-02-12T06:54:33.407Z,64.30
2018-02-12T06:59:55.998Z,64.60
2018-02-12T07:02:22.272Z,63.80
2018-02-12T07:04:49.322Z,64.50
2018-02-12T07:09:52.618Z,64.20
2018-02-12T07:12:18.908Z,63.60
2018-02-12T07:14:45.178Z,63.70
2018-02-12T07:17:12.693Z,63.40
2018-02-12T07:19:38.898Z,63.80
2018-02-12T07:22:05.325Z,63.40
2018-02-12T07:24:31.701Z,63.30
2018-02-12T07:26:57.997Z,63.10
2018-02-12T07:31:58.421Z,63.70
2018-02-12T07:34:25.498Z,63.40
2018-02-12T07:36:51.713Z,63.30
2018-02-12T07:39:21.485Z,63.40
2018-02-12T07:41:47.743Z,63.40
2018-02-12T07:44:13.906Z,62.70
2018-02-12T07:46:41.505Z,63.00
2018-02-12T07:49:08.624Z,62.80
2018-02-12T07:51:34.832Z,62.70
2018-02-12T07:54:01.005Z,62.70
2018-02-12T07:56:27.384Z,62.70
2018-02-12T07:58:53.977Z,62.00
2018-02-12T08:01:20.360Z,61.70
2018-02-12T08:03:46.627Z,62.50
2018-02-12T08:06:13.579Z,61.50
2018-02-12T08:08:41.221Z,60.40
2018-02-12T08:11:07.476Z,60.40
2018-02-12T08:13:33.892Z,60.90
2018-02-12T08:16:00.117Z,60.30
2018-02-12T08:18:26.373Z,60.60
2018-02-12T08:20:53.161Z,59.80
2018-02-12T08:23:19.442Z,59.10
2018-02-12T08:25:45.648Z,59.30
2018-02-12T08:28:12.614Z,59.00
2018-02-12T08:30:39.891Z,58.20
2018-02-12T08:33:06.837Z,59.50
2018-02-12T08:35:33.908Z,59.60
2018-02-12T08:38:00.907Z,59.50
2018-02-12T08:40:27.418Z,59.30
2018-02-12T08:42:53.716Z,58.60
2018-02-12T08:45:20.092Z,59.70
2018-02-12T08:47:46.516Z,58.40
2018-02-12T08:50:12.772Z,58.60
2018-02-12T08:52:39.021Z,57.20
2018-02-12T08:55:06.152Z,59.10
2018-02-12T08:57:32.625Z,58.40
2018-02-12T08:59:58.961Z,58.40
2018-02-12T09:02:25.195Z,58.40
2018-02-12T09:04:51.517Z,57.40
2018-02-12T09:07:17.751Z,57.40
2018-02-12T09:09:43.973Z,57.80
2018-02-12T09:12:10.248Z,57.50
2018-02-12T09:14:36.554Z,56.80
2018-02-12T09:17:03.056Z,57.50
2018-02-12T09:19:30.125Z,56.70
2018-02-12T09:21:56.405Z,56.70
2018-02-12T09:24:22.671Z,56.40
2018-02-12T09:26:49.011Z,55.40
2018-02-12T09:29:15.256Z,56.80
2018-02-12T09:31:41.529Z,55.90
2018-02-12T09:34:07.738Z,55.80
2018-02-12T09:36:34.100Z,55.80
2018-02-12T09:39:00.343Z,55.00
2018-02-12T09:41:26.549Z,55.00
2018-02-12T09:43:52.852Z,55.40
2018-02-12T09:46:19.867Z,55.70
2018-02-12T09:48:46.259Z,55.70
2018-02-12T09:51:12.628Z,56.20
2018-02-12T09:53:38.850Z,55.50
2018-02-12T09:56:05.767Z,57.70
2018-02-12T09:58:31.968Z,57.70
2018-02-12T10:00:58.150Z,57.60
2018-02-12T10:03:25.424Z,58.20
2018-02-12T10:05:51.636Z,59.10
2018-02-12T10:08:18.053Z,59.10
2018-02-12T10:10:44.369Z,59.50
2018-02-12T10:13:10.566Z,59.20
2018-02-12T10:15:36.856Z,60.00
2018-02-12T10:18:03.297Z,58.50
2018-02-12T10:20:29.521Z,60.40
2018-02-12T10:22:55.807Z,59.60
2018-02-12T10:25:22.044Z,59.60
2018-02-12T10:27:49.079Z,60.20
2018-02-12T10:30:15.276Z,60.20
2018-02-12T10:32:42.596Z,59.70
2018-02-12T10:35:08.938Z,59.70
2018-02-12T10:37:35.148Z,59.70
2018-02-12T10:40:01.483Z,59.40
2018-02-12T10:42:27.726Z,59.70
2018-02-12T10:44:53.980Z,59.60
2018-02-12T10:47:20.448Z,59.00
2018-02-12T10:49:46.669Z,59.80
2018-02-12T10:52:12.916Z,58.40
2018-02-12T10:54:39.296Z,58.90
2018-02-12T10:57:05.625Z,57.80
2018-02-12T10:59:31.851Z,56.70
2018-02-12T11:01:58.137Z,55.40
2018-02-12T11:04:24.392Z,55.80
2018-02-12T11:06:50.673Z,56.20
2018-02-12T11:09:17.000Z,54.90
2018-02-12T11:11:43.258Z,54.40
2018-02-12T11:14:09.516Z,55.30
2018-02-12T11:16:36.439Z,55.50
2018-02-12T11:19:02.890Z,56.20
2018-02-12T11:21:29.099Z,54.70
2018-02-12T11:23:55.341Z,56.20
2018-02-12T11:26:21.912Z,56.80
2018-02-12T11:28:48.902Z,56.10
2018-02-12T11:31:15.613Z,56.10
2018-02-12T11:33:41.844Z,57.70
2018-02-12T11:36:08.125Z,57.40
2018-02-12T11:38:34.469Z,56.80
2018-02-12T11:41:00.683Z,55.70
2018-02-12T11:43:27.492Z,55.70
2018-02-12T11:45:54.411Z,57.20
2018-02-12T11:48:20.628Z,57.10
2018-02-12T11:50:47.236Z,55.10
2018-02-12T11:53:13.711Z,54.00
2018-02-12T11:55:39.920Z,55.40
2018-02-12T11:58:06.223Z,51.40
2018-02-12T12:00:32.612Z,50.60
2018-02-12T12:02:59.696Z,49.60
2018-02-12T12:05:25.941Z,49.60
2018-02-12T12:07:52.460Z,48.90
2018-02-12T12:10:19.409Z,44.50
2018-02-12T12:12:46.408Z,45.40
2018-02-12T12:15:12.650Z,45.40
2018-02-12T12:17:39.052Z,45.50
2018-02-12T12:20:08.642Z,42.70
2018-02-12T12:22:35.199Z,42.60
2018-02-12T12:25:01.736Z,43.50
2018-02-12T12:27:28.477Z,40.30
2018-02-12T12:29:54.938Z,41.20
2018-02-12T12:32:21.276Z,41.50
2018-02-12T12:34:47.575Z,41.80
2018-02-12T12:37:14.016Z,40.10
2018-02-12T12:39:40.297Z,40.10
2018-02-12T12:42:06.708Z,42.20
2018-02-12T12:44:33.085Z,40.00
2018-02-12T12:46:59.376Z,39.10
2018-02-12T12:49:25.582Z,38.80
2018-02-12T12:51:52.000Z,37.40
2018-02-12T12:54:19.538Z,37.80
2018-02-12T12:56:46.528Z,42.70
2018-02-12T12:59:12.739Z,42.60
2018-02-12T13:01:39.060Z,42.20
2018-02-12T13:04:05.247Z,42.60
2018-02-12T13:06:31.491Z,40.80
2018-02-12T13:08:59.870Z,39.20
2018-02-12T13:11:26.849Z,40.50
2018-02-12T13:13:53.168Z,40.50
2018-02-12T13:16:19.433Z,40.40
2018-02-12T13:18:46.969Z,38.70
2018-02-12T13:21:13.460Z,40.00
2018-02-12T13:23:39.665Z,42.20
2018-02-12T13:26:05.865Z,40.20
2018-02-12T13:28:32.269Z,40.70
2018-02-12T13:30:59.313Z,40.10
2018-02-12T13:33:25.536Z,41.30
2018-02-12T13:35:51.771Z,43.30
2018-02-12T13:38:18.200Z,43.70
2018-02-12T13:40:44.470Z,43.40
2018-02-12T13:43:10.708Z,44.90
2018-02-12T13:45:37.205Z,46.80
2018-02-12T13:48:03.416Z,46.70
2018-02-12T13:50:30.394Z,46.50
2018-02-12T13:52:56.647Z,46.50
2018-02-12T13:55:23.086Z,46.20
2018-02-12T13:57:49.333Z,47.20
2018-02-12T14:00:15.689Z,46.70
2018-02-12T14:02:42.034Z,45.80
2018-02-12T14:05:08.305Z,45.90
2018-02-12T14:07:34.648Z,43.70
2018-02-12T14:10:01.069Z,44.40
2018-02-12T14:12:27.284Z,44.60
2018-02-12T14:14:53.543Z,43.30
2018-02-12T14:17:19.943Z,43.40
2018-02-12T14:19:46.420Z,42.10
2018-02-12T14:22:12.660Z,43.50
2018-02-12T14:24:39.121Z,41.40
2018-02-12T14:27:05.680Z,40.20
2018-02-12T14:29:31.927Z,38.80
2018-02-12T14:31:58.330Z,38.30
2018-02-12T14:34:24.713Z,36.10
2018-02-12T14:36:51.091Z,36.90
2018-02-12T14:39:18.115Z,35.20
2018-02-12T14:44:16.858Z,35.40
2018-02-12T14:46:43.063Z,36.90
2018-02-12T14:49:10.425Z,35.00
2018-02-12T14:51:36.672Z,36.40
2018-02-12T14:54:03.026Z,36.70
2018-02-12T14:56:29.545Z,36.40
2018-02-12T14:58:56.007Z,37.10
2018-02-12T15:01:22.413Z,36.40
2018-02-12T15:03:48.661Z,37.20
2018-02-12T15:06:16.687Z,35.50
2018-02-12T15:08:42.895Z,35.50
2018-02-12T15:11:09.137Z,36.10
2018-02-12T15:13:36.305Z,36.40
2018-02-12T15:16:03.409Z,35.20
2018-02-12T15:18:29.679Z,37.20
2018-02-12T15:20:56.052Z,36.00
2018-02-12T15:23:22.554Z,36.10
2018-02-12T15:25:48.820Z,34.60
2018-02-12T15:28:16.031Z,34.10
2018-02-12T15:30:42.233Z,34.70
2018-02-12T15:33:08.729Z,34.20
2018-02-12T15:35:35.019Z,33.70
2018-02-12T15:38:01.371Z,34.50
2018-02-12T15:40:28.660Z,35.20
2018-02-12T15:42:55.010Z,35.10
2018-02-12T15:45:21.371Z,34.20
2018-02-12T15:47:47.597Z,34.80
2018-02-12T15:50:13.863Z,34.30
2018-02-12T15:52:40.845Z,34.10
2018-02-12T15:55:07.378Z,33.40
2018-02-12T15:57:35.266Z,34.30
2018-02-12T16:00:02.144Z,34.10
2018-02-12T16:02:28.386Z,34.50
2018-02-12T16:04:55.614Z,35.10
2018-02-12T16:07:21.843Z,34.10
2018-02-12T16:09:48.232Z,34.20
2018-02-12T16:12:14.417Z,31.80
2018-02-12T16:14:40.654Z,32.60
2018-02-12T16:17:07.604Z,32.10
2018-02-12T16:19:34.593Z,32.30
2018-02-12T16:22:00.784Z,32.30
2018-02-12T16:24:27.034Z,33.70
2018-02-12T16:26:53.237Z,33.00
2018-02-12T16:29:19.576Z,32.70
2018-02-12T16:31:45.857Z,33.70
2018-02-12T16:34:13.333Z,33.30
2018-02-12T16:36:39.640Z,33.40
2018-02-12T16:39:05.869Z,32.90
2018-02-12T16:41:32.182Z,33.50
2018-02-12T16:43:58.408Z,32.80
2018-02-12T16:46:24.641Z,33.50
2018-02-12T16:48:50.956Z,34.70
2018-02-12T16:51:18.345Z,34.60
2018-02-12T16:53:44.537Z,34.60
2018-02-12T16:56:11.954Z,34.00
2018-02-12T16:58:38.806Z,34.20
2018-02-12T17:01:13.219Z,34.40
2018-02-12T17:03:39.692Z,34.30
2018-02-12T17:06:05.933Z,36.20
2018-02-12T17:08:32.604Z,34.80
2018-02-12T17:10:58.834Z,34.20
2018-02-12T17:13:25.434Z,34.90
2018-02-12T17:15:52.227Z,35.70
2018-02-12T17:18:19.160Z,37.20
2018-02-12T17:20:45.504Z,36.70
2018-02-12T17:23:11.984Z,37.90
2018-02-12T17:25:38.477Z,37.30
2018-02-12T17:28:04.966Z,37.70
2018-02-12T17:30:31.237Z,38.40
2018-02-12T17:32:57.685Z,39.60
2018-02-12T17:35:24.166Z,40.00
2018-02-12T17:37:50.920Z,39.40
2018-02-12T17:40:17.368Z,38.40
2018-02-12T17:42:43.584Z,39.10
2018-02-12T17:45:09.785Z,38.20
2018-02-12T17:47:36.121Z,38.20
2018-02-12T17:50:04.087Z,38.20
2018-02-12T17:52:31.196Z,39.40
2018-02-12T17:54:57.599Z,39.40
2018-02-12T17:57:24.078Z,39.20
2018-02-12T17:59:51.598Z,39.80
2018-02-12T18:02:17.825Z,39.70
2018-02-12T18:04:44.034Z,40.50
2018-02-12T18:07:11.324Z,41.00
2018-02-12T18:09:37.705Z,41.10
2018-02-12T18:12:04.068Z,42.00
2018-02-12T18:14:31.361Z,42.10
2018-02-12T18:16:58.978Z,42.10
2018-02-12T18:19:25.592Z,43.70
2018-02-12T18:21:51.799Z,44.60
2018-02-12T18:24:17.980Z,43.80
2018-02-12T18:26:44.204Z,43.80
2018-02-12T18:29:10.500Z,43.90
2018-02-12T18:31:36.801Z,44.00
2018-02-12T18:34:03.323Z,43.50
2018-02-12T18:36:29.540Z,44.60
2018-02-12T18:38:55.889Z,44.50
2018-02-12T18:41:22.205Z,45.10
2018-02-12T18:43:48.453Z,45.40
2018-02-12T18:46:15.399Z,45.90
2018-02-12T18:48:41.672Z,45.90
2018-02-12T18:51:08.967Z,46.60
2018-02-12T18:53:35.227Z,46.60
2018-02-12T18:56:01.520Z,46.70
2018-02-12T18:58:28.073Z,47.70
2018-02-12T19:00:54.369Z,48.70
2018-02-12T19:03:24.324Z,48.70
2018-02-12T19:05:51.121Z,49.00
2018-02-12T19:08:17.370Z,48.90
2018-02-12T19:10:43.834Z,48.30
2018-02-12T19:13:10.045Z,48.30
2018-02-12T19:15:37.049Z,48.70
2018-02-12T19:18:05.384Z,48.70
2018-02-12T19:20:31.720Z,48.50
2018-02-12T19:22:58.969Z,49.10
2018-02-12T19:25:25.221Z,49.20
2018-02-12T19:27:53.220Z,49.50
2018-02-12T19:30:19.609Z,50.50
2018-02-12T19:32:46.149Z,51.10
2018-02-12T19:35:12.528Z,50.40
2018-02-12T19:37:38.736Z,50.70
2018-02-12T19:40:05.350Z,51.00
2018-02-12T19:42:37.421Z,51.90
2018-02-12T19:45:03.844Z,51.90
2018-02-12T19:47:31.118Z,50.70
2018-02-12T19:49:57.397Z,51.50
2018-02-12T19:52:23.595Z,51.70
2018-02-12T19:54:50.010Z,51.10
2018-02-12T19:57:16.221Z,51.30
2018-02-12T19:59:44.845Z,51.60
2018-02-12T20:02:11.056Z,51.30
2018-02-12T20:04:38.152Z,52.00
2018-02-12T20:07:04.705Z,51.90
2018-02-12T20:09:30.954Z,51.40
2018-02-12T20:11:57.512Z,52.00
2018-02-12T20:14:25.645Z,51.90
2018-02-12T20:16:52.931Z,51.80
2018-02-12T20:19:19.164Z,51.80
2018-02-12T20:21:45.410Z,52.30
2018-02-12T20:24:11.690Z,53.00
2018-02-12T20:26:37.850Z,52.70
2018-02-12T20:29:04.076Z,52.80
2018-02-12T20:31:30.692Z,52.80
2018-02-12T20:33:56.908Z,53.30
2018-02-12T20:36:23.099Z,53.90
2018-02-12T20:38:49.302Z,53.90
2018-02-12T20:41:15.725Z,54.20
2018-02-12T20:43:42.087Z,54.20
2018-02-12T20:46:08.489Z,53.70
2018-02-12T20:48:34.878Z,53.50
2018-02-12T20:51:01.101Z,53.70
2018-02-12T20:53:27.452Z,53.70
2018-02-12T20:55:53.952Z,52.80
2018-02-12T21:01:00.706Z,52.90
2018-02-12T21:03:27.128Z,53.30
2018-02-12T21:05:53.428Z,54.00
2018-02-12T21:08:20.084Z,55.10
2018-02-12T21:10:46.727Z,55.10
2018-02-12T21:13:13.000Z,55.10
2018-02-12T21:15:39.296Z,54.10
2018-02-12T21:18:05.603Z,53.80
2018-02-12T21:20:33.084Z,53.60
2018-02-12T21:23:00.044Z,53.50
2018-02-12T21:25:26.274Z,53.50
2018-02-12T21:27:52.548Z,53.50
2018-02-12T21:30:18.765Z,53.50
2018-02-12T21:32:46.092Z,54.40
2018-02-12T21:35:12.333Z,54.30
2018-02-12T21:37:38.761Z,54.90
2018-02-12T21:40:05.015Z,54.90
2018-02-12T21:42:31.832Z,55.70
2018-02-12T21:44:58.345Z,55.90
2018-02-12T21:47:24.638Z,55.90
2018-02-12T21:49:52.076Z,56.10
2018-02-12T21:52:18.302Z,55.70
2018-02-12T21:54:44.781Z,55.90
2018-02-12T21:57:11.037Z,55.90
2018-02-12T21:59:37.241Z,56.20
2018-02-12T22:02:03.540Z,55.60
2018-02-12T22:04:29.813Z,55.80
2018-02-12T22:06:56.124Z,55.60
2018-02-12T22:09:22.543Z,56.00
2018-02-12T22:11:48.809Z,56.00
2018-02-12T22:14:15.028Z,55.40
2018-02-12T22:16:41.350Z,55.10
2018-02-12T22:19:08.665Z,54.60
2018-02-12T22:21:34.888Z,54.50
2018-02-12T22:24:01.213Z,54.50
2018-02-12T22:26:27.470Z,54.70
2018-02-12T22:28:53.748Z,54.60
2018-02-12T22:31:20.024Z,54.60
2018-02-12T22:33:47.173Z,54.60
2018-02-12T22:36:14.193Z,54.50
2018-02-12T22:38:40.487Z,54.50
2018-02-12T22:41:07.499Z,53.90
2018-02-12T22:43:33.942Z,53.80
2018-02-12T22:46:00.176Z,54.70
2018-02-12T22:48:26.420Z,54.70
2018-02-12T22:50:52.834Z,54.20
2018-02-12T22:53:19.459Z,53.90
2018-02-12T22:55:45.768Z,54.20
2018-02-12T22:58:12.789Z,54.70
2018-02-12T23:00:39.513Z,54.60
2018-02-12T23:03:06.284Z,54.70
2018-02-12T23:05:32.722Z,55.00
2018-02-12T23:08:00.306Z,54.30
2018-02-12T23:10:26.943Z,54.10
2018-02-12T23:12:53.935Z,54.70
2018-02-12T23:15:26.449Z,54.60
2018-02-12T23:17:53.140Z,54.30
2018-02-12T23:20:19.416Z,54.70
2018-02-12T23:22:45.733Z,54.20
2018-02-12T23:25:12.024Z,54.70
2018-02-12T23:27:38.299Z,54.70
2018-02-12T23:30:04.621Z,54.50
2018-02-12T23:32:31.802Z,54.70
2018-02-12T23:34:58.090Z,54.70
2018-02-12T23:37:24.352Z,54.70
2018-02-12T23:39:50.572Z,54.70
2018-02-12T23:42:17.245Z,54.70
2018-02-12T23:44:43.565Z,54.70
2018-02-12T23:47:10.082Z,54.60
2018-02-12T23:49:37.409Z,56.00
2018-02-12T23:52:04.047Z,56.00
2018-02-12T23:54:30.391Z,55.80
2018-02-12T23:56:56.656Z,56.00
2018-02-12T23:59:23.090Z,55.40
